createdAt,value
2018-04-18T00:01:33.306Z,9.81
2018-04-18T00:04:04.638Z,9.94
2018-04-18T00:06:34.972Z,10.12
2018-04-18T00:09:06.440Z,10.28
2018-04-18T00:11:36.254Z,10.08
2018-04-18T00:14:07.079Z,9.83
2018-04-18T00:16:37.483Z,9.81
2018-04-18T00:19:07.751Z,9.69
2018-04-18T00:21:37.702Z,9.64
2018-04-18T00:24:08.389Z,9.62
2018-04-18T00:26:38.488Z,9.59
2018-04-18T00:29:09.051Z,9.66
2018-04-18T00:31:38.959Z,9.66
2018-04-18T00:34:09.178Z,9.58
2018-04-18T00:36:39.764Z,9.57
2018-04-18T00:39:10.036Z,9.82
2018-04-18T00:41:40.887Z,9.84
2018-04-18T00:44:11.703Z,9.83
2018-04-18T00:46:42.029Z,9.72
2018-04-18T00:49:12.782Z,9.67
2018-04-18T00:51:43.710Z,9.74
2018-04-18T00:54:14.026Z,9.63
2018-04-18T00:56:44.671Z,9.53
2018-04-18T00:59:14.984Z,9.67
2018-04-18T01:01:44.900Z,9.68
2018-04-18T01:04:15.238Z,9.70
2018-04-18T01:06:45.672Z,9.60
2018-04-18T01:09:16.244Z,9.75
2018-04-18T01:11:46.672Z,9.55
2018-04-18T01:14:18.137Z,9.45
2018-04-18T01:16:48.603Z,9.39
2018-04-18T01:19:19.598Z,9.16
2018-04-18T01:21:49.946Z,9.22
2018-04-18T01:24:20.401Z,9.37
2018-04-18T01:26:50.716Z,9.22
2018-04-18T01:29:21.102Z,9.22
2018-04-18T01:31:51.567Z,9.38
2018-04-18T01:34:21.995Z,9.44
2018-04-18T01:36:52.725Z,9.57
2018-04-18T01:39:22.929Z,9.62
2018-04-18T01:41:52.760Z,9.54
2018-04-18T01:44:23.666Z,9.50
2018-04-18T01:46:53.625Z,9.38
2018-04-18T01:49:24.214Z,9.38
2018-04-18T01:51:54.937Z,9.42
2018-04-18T01:54:25.308Z,9.40
2018-04-18T01:56:55.497Z,9.32
2018-04-18T01:59:25.937Z,9.28
2018-04-18T02:01:56.471Z,9.14
2018-04-18T02:04:27.301Z,9.00
2018-04-18T02:06:57.872Z,8.91
2018-04-18T02:09:28.326Z,9.05
2018-04-18T02:11:58.973Z,9.22
2018-04-18T02:14:29.129Z,9.18
2018-04-18T02:16:59.431Z,9.21
2018-04-18T02:19:29.743Z,9.19
2018-04-18T02:22:00.086Z,9.12
2018-04-18T02:24:30.713Z,9.15
2018-04-18T02:27:01.071Z,9.02
2018-04-18T02:29:31.495Z,9.00
2018-04-18T02:32:02.019Z,8.99
2018-04-18T02:34:32.549Z,9.21
2018-04-18T02:37:02.660Z,9.31
2018-04-18T02:39:33.098Z,9.33
2018-04-18T02:42:03.730Z,9.28
2018-04-18T02:44:34.255Z,9.21
2018-04-18T02:47:05.369Z,9.11
2018-04-18T02:49:36.199Z,9.09
2018-04-18T02:52:06.825Z,9.15
2018-04-18T02:54:37.207Z,8.99
2018-04-18T02:57:07.318Z,8.98
2018-04-18T02:59:37.398Z,8.90
2018-04-18T03:02:08.096Z,8.88
2018-04-18T03:04:38.680Z,8.90
2018-04-18T03:07:08.881Z,8.92
2018-04-18T03:09:39.415Z,8.99
2018-04-18T03:12:09.982Z,8.95
2018-04-18T03:14:40.615Z,8.94
2018-04-18T03:17:11.455Z,8.91
2018-04-18T03:19:41.420Z,8.84
2018-04-18T03:22:12.102Z,8.75
2018-04-18T03:24:42.009Z,8.59
2018-04-18T03:27:13.414Z,8.41
2018-04-18T03:29:43.591Z,8.32
2018-04-18T03:32:13.873Z,8.31
2018-04-18T03:34:45.142Z,8.38
2018-04-18T03:37:15.787Z,8.43
2018-04-18T03:39:46.113Z,8.59
2018-04-18T03:42:16.034Z,8.60
2018-04-18T03:44:46.559Z,8.55
2018-04-18T03:47:17.191Z,8.35
2018-04-18T03:49:47.828Z,8.25
2018-04-18T03:52:18.358Z,8.16
2018-04-18T03:54:48.376Z,8.15
2018-04-18T03:57:19.121Z,8.24
2018-04-18T03:59:49.584Z,8.25
2018-04-18T04:02:19.552Z,8.26
2018-04-18T04:04:50.646Z,8.57
2018-04-18T04:07:20.510Z,8.50
2018-04-18T04:09:50.263Z,8.60
2018-04-18T04:12:20.132Z,8.81
2018-04-18T04:14:50.048Z,8.83
2018-04-18T04:17:31.535Z,8.92
2018-04-18T04:20:13.124Z,8.96
2018-04-18T04:22:54.820Z,8.92
2018-04-18T04:25:24.723Z,8.96
2018-04-18T04:27:54.652Z,9.18
2018-04-18T04:30:24.465Z,9.39
2018-04-18T04:32:54.371Z,9.32
2018-04-18T04:35:24.283Z,9.32
2018-04-18T04:37:54.204Z,9.40
2018-04-18T04:40:24.113Z,9.53
2018-04-18T04:42:53.935Z,9.74
2018-04-18T04:45:23.848Z,10.05
2018-04-18T04:47:53.666Z,10.16
2018-04-18T04:50:23.573Z,10.19
2018-04-18T04:52:53.385Z,10.22
2018-04-18T04:55:23.194Z,10.51
2018-04-18T04:57:53.012Z,10.67
2018-04-18T05:00:22.827Z,10.95
2018-04-18T05:02:52.736Z,11.11
2018-04-18T05:05:22.554Z,11.40
2018-04-18T05:07:52.361Z,11.67
2018-04-18T05:10:22.087Z,11.93
2018-04-18T05:12:51.885Z,12.10
2018-04-18T05:15:21.803Z,12.24
2018-04-18T05:17:51.620Z,12.49
2018-04-18T05:20:21.439Z,12.88
2018-04-18T05:22:51.241Z,13.10
2018-04-18T05:25:21.053Z,13.23
2018-04-18T05:27:50.875Z,13.35
2018-04-18T05:30:20.679Z,13.38
2018-04-18T05:32:50.600Z,13.54
2018-04-18T05:35:20.408Z,13.93
2018-04-18T05:37:52.370Z,14.20
2018-04-18T05:40:22.295Z,14.35
2018-04-18T05:42:52.099Z,14.25
2018-04-18T05:45:21.909Z,14.18
2018-04-18T05:47:51.721Z,14.00
2018-04-18T05:50:21.534Z,14.09
2018-04-18T05:52:51.353Z,14.35
2018-04-18T05:55:21.223Z,14.25
2018-04-18T05:57:51.081Z,14.45
2018-04-18T06:00:20.998Z,14.45
2018-04-18T06:02:50.906Z,14.55
2018-04-18T06:05:20.723Z,14.76
2018-04-18T06:07:50.646Z,15.16
2018-04-18T06:10:20.454Z,15.42
2018-04-18T06:12:50.360Z,15.50
2018-04-18T06:15:20.191Z,15.69
2018-04-18T06:17:50.057Z,16.00
2018-04-18T06:20:19.900Z,16.22
2018-04-18T06:22:49.843Z,16.24
2018-04-18T06:25:19.746Z,16.38
2018-04-18T06:27:49.550Z,16.52
2018-04-18T06:30:19.669Z,16.40
2018-04-18T06:32:49.595Z,16.73
2018-04-18T06:35:19.498Z,16.63
2018-04-18T06:37:49.319Z,16.85
2018-04-18T06:40:19.231Z,17.00
2018-04-18T06:42:49.048Z,17.07
2018-04-18T06:45:18.952Z,17.17
2018-04-18T06:47:48.876Z,17.08
2018-04-18T06:50:18.691Z,17.49
2018-04-18T06:52:48.608Z,17.82
2018-04-18T06:55:18.411Z,17.89
2018-04-18T06:57:48.236Z,17.94
2018-04-18T07:00:18.035Z,18.03
2018-04-18T07:02:47.865Z,18.16
2018-04-18T07:05:17.770Z,18.34
2018-04-18T07:07:47.583Z,18.58
2018-04-18T07:10:17.495Z,18.68
2018-04-18T07:12:47.314Z,18.98
2018-04-18T07:15:17.326Z,18.91
2018-04-18T07:17:47.139Z,19.12
2018-04-18T07:20:16.951Z,19.27
2018-04-18T07:22:46.860Z,19.41
2018-04-18T07:25:16.686Z,19.39
2018-04-18T07:27:46.500Z,19.35
2018-04-18T07:30:16.408Z,19.58
2018-04-18T07:32:46.495Z,19.69
2018-04-18T07:35:16.428Z,19.86
2018-04-18T07:37:46.360Z,20.04
2018-04-18T07:40:16.985Z,20.27
2018-04-18T07:42:46.795Z,20.42
2018-04-18T07:45:16.614Z,20.46
2018-04-18T07:47:46.431Z,20.53
2018-04-18T07:50:16.340Z,20.91
2018-04-18T07:52:46.108Z,21.00
2018-04-18T07:55:16.069Z,21.16
2018-04-18T07:57:45.879Z,21.27
2018-04-18T08:00:15.810Z,21.37
2018-04-18T08:02:45.709Z,21.52
2018-04-18T08:05:15.630Z,21.68
2018-04-18T08:07:45.442Z,21.82
2018-04-18T08:10:15.350Z,21.86
2018-04-18T08:12:45.283Z,21.84
2018-04-18T08:15:15.111Z,21.91
2018-04-18T08:17:45.103Z,22.05
2018-04-18T08:20:15.123Z,22.46
2018-04-18T08:22:45.030Z,22.73
2018-04-18T08:25:14.851Z,22.68
2018-04-18T08:27:56.748Z,22.82
2018-04-18T08:30:26.563Z,23.40
2018-04-18T08:32:56.371Z,23.44
2018-04-18T08:35:26.195Z,23.43
2018-04-18T08:37:56.001Z,23.51
2018-04-18T08:40:25.905Z,23.70
2018-04-18T08:42:55.831Z,24.02
2018-04-18T08:45:25.743Z,24.26
2018-04-18T08:47:55.559Z,24.38
2018-04-18T08:50:25.473Z,24.44
2018-04-18T08:52:55.378Z,24.33
2018-04-18T08:55:25.168Z,24.51
2018-04-18T08:57:55.015Z,24.72
2018-04-18T09:00:24.924Z,24.51
2018-04-18T09:02:54.839Z,24.46
2018-04-18T09:05:24.651Z,24.48
2018-04-18T09:07:54.566Z,25.07
2018-04-18T09:10:24.478Z,24.78
2018-04-18T09:12:54.308Z,24.80
2018-04-18T09:15:24.107Z,24.75
2018-04-18T09:17:53.923Z,25.26
2018-04-18T09:20:23.830Z,26.12
2018-04-18T09:22:53.754Z,26.53
2018-04-18T09:25:23.558Z,26.67
2018-04-18T09:27:53.372Z,26.44
2018-04-18T09:30:23.193Z,26.15
2018-04-18T09:32:53.076Z,26.04
2018-04-18T09:35:22.916Z,26.35
2018-04-18T09:37:52.835Z,26.54
2018-04-18T09:40:22.764Z,26.06
2018-04-18T09:42:52.559Z,26.50
2018-04-18T09:45:22.478Z,26.93
2018-04-18T09:47:52.286Z,26.91
2018-04-18T09:50:22.107Z,27.22
2018-04-18T09:52:51.913Z,27.84
2018-04-18T09:55:21.742Z,27.81
2018-04-18T09:57:52.386Z,27.69
2018-04-18T10:00:27.706Z,27.08
2018-04-18T10:03:03.147Z,27.17
2018-04-18T10:05:32.962Z,27.44
2018-04-18T10:08:02.780Z,27.66
2018-04-18T10:10:32.688Z,27.38
2018-04-18T10:13:02.496Z,27.63
2018-04-18T10:15:32.415Z,28.10
2018-04-18T10:18:02.192Z,28.20
2018-04-18T10:20:31.939Z,28.20
2018-04-18T10:23:02.286Z,28.42
2018-04-18T10:25:32.071Z,28.65
2018-04-18T10:28:01.882Z,29.16
2018-04-18T10:30:31.601Z,29.35
2018-04-18T10:33:01.242Z,29.04
2018-04-18T10:35:30.872Z,29.18
2018-04-18T10:38:00.564Z,29.47
2018-04-18T10:40:30.348Z,29.46
2018-04-18T10:43:00.072Z,29.43
2018-04-18T10:45:29.897Z,29.58
2018-04-18T10:47:59.486Z,29.88
2018-04-18T10:50:29.188Z,29.93
2018-04-18T10:52:58.894Z,30.47
2018-04-18T10:55:28.540Z,30.74
2018-04-18T10:57:58.352Z,30.76
2018-04-18T11:00:28.938Z,31.08
2018-04-18T11:02:58.648Z,30.24
2018-04-18T11:05:28.389Z,30.20
2018-04-18T11:07:58.108Z,30.55
2018-04-18T11:10:27.734Z,30.43
2018-04-18T11:12:57.360Z,30.21
2018-04-18T11:15:27.212Z,29.99
2018-04-18T11:17:57.023Z,30.00
2018-04-18T11:20:27.357Z,30.37
2018-04-18T11:22:57.359Z,30.39
2018-04-18T11:25:27.272Z,30.60
2018-04-18T11:27:57.100Z,30.68
2018-04-18T11:30:27.013Z,30.87
2018-04-18T11:32:56.716Z,30.90
2018-04-18T11:35:26.528Z,31.51
2018-04-18T11:37:56.325Z,32.13
2018-04-18T11:40:26.254Z,31.58
2018-04-18T11:42:56.078Z,31.70
2018-04-18T11:45:26.017Z,31.51
2018-04-18T11:47:55.903Z,31.17
2018-04-18T11:50:25.815Z,31.60
2018-04-18T11:52:55.742Z,31.79
2018-04-18T11:55:25.548Z,30.99
2018-04-18T11:57:55.465Z,31.01
2018-04-18T12:00:25.273Z,30.60
2018-04-18T12:02:55.202Z,31.16
2018-04-18T12:05:25.000Z,30.87
2018-04-18T12:07:54.920Z,31.35
2018-04-18T12:10:24.741Z,31.50
2018-04-18T12:12:54.648Z,31.80
2018-04-18T12:15:24.459Z,31.67
2018-04-18T12:17:54.244Z,32.04
2018-04-18T12:20:24.182Z,31.88
2018-04-18T12:22:53.998Z,32.62
2018-04-18T12:25:23.915Z,31.98
2018-04-18T12:27:53.733Z,31.98
2018-04-18T12:30:23.539Z,31.97
2018-04-18T12:32:53.350Z,31.40
2018-04-18T12:35:23.166Z,31.38
2018-04-18T12:37:53.084Z,32.61
2018-04-18T12:40:22.994Z,32.54
2018-04-18T12:42:52.915Z,32.58
2018-04-18T12:45:22.699Z,31.98
2018-04-18T12:47:52.548Z,31.85
2018-04-18T12:50:22.352Z,32.00
2018-04-18T12:52:52.160Z,31.82
2018-04-18T12:55:22.178Z,31.65
2018-04-18T12:57:51.994Z,31.60
2018-04-18T13:00:21.800Z,31.88
2018-04-18T13:02:51.623Z,31.26
2018-04-18T13:05:21.357Z,30.97
2018-04-18T13:07:51.245Z,31.80
2018-04-18T13:10:21.159Z,31.90
2018-04-18T13:12:50.976Z,32.13
2018-04-18T13:15:20.896Z,32.48
2018-04-18T13:17:50.804Z,32.73
2018-04-18T13:20:20.726Z,32.85
2018-04-18T13:22:50.641Z,32.84
2018-04-18T13:25:20.651Z,32.10
2018-04-18T13:27:50.561Z,32.38
2018-04-18T13:30:20.369Z,32.67
2018-04-18T13:32:50.201Z,33.04
2018-04-18T13:35:20.000Z,32.94
2018-04-18T13:37:49.862Z,32.59
2018-04-18T13:40:19.758Z,32.90
2018-04-18T13:42:49.661Z,32.58
2018-04-18T13:45:19.561Z,32.95
2018-04-18T13:47:49.375Z,32.61
2018-04-18T13:50:19.193Z,32.61
2018-04-18T13:52:49.001Z,32.08
2018-04-18T13:55:18.819Z,32.08
2018-04-18T13:57:48.732Z,31.85
2018-04-18T14:00:18.551Z,31.57
2018-04-18T14:02:48.469Z,31.43
2018-04-18T14:05:18.282Z,32.07
2018-04-18T14:07:48.131Z,31.85
2018-04-18T14:10:18.005Z,31.79
2018-04-18T14:12:47.811Z,32.04
2018-04-18T14:15:17.791Z,32.20
2018-04-18T14:17:47.640Z,31.99
2018-04-18T14:20:17.556Z,31.27
2018-04-18T14:22:47.280Z,31.29
2018-04-18T14:25:17.087Z,31.04
2018-04-18T14:27:46.996Z,31.23
2018-04-18T14:30:16.829Z,31.93
2018-04-18T14:32:47.021Z,32.19
2018-04-18T14:35:16.742Z,31.97
2018-04-18T14:37:46.587Z,31.86
2018-04-18T14:40:16.480Z,32.53
2018-04-18T14:42:46.385Z,32.86
2018-04-18T14:45:16.300Z,32.67
2018-04-18T14:47:46.120Z,32.48
2018-04-18T14:50:16.241Z,32.23
2018-04-18T14:52:46.052Z,31.69
2018-04-18T14:55:15.866Z,31.49
2018-04-18T14:57:45.674Z,31.88
2018-04-18T15:00:15.590Z,32.33
2018-04-18T15:02:45.409Z,31.81
2018-04-18T15:05:15.228Z,32.28
2018-04-18T15:07:45.231Z,31.90
2018-04-18T15:10:15.043Z,31.77
2018-04-18T15:12:44.861Z,31.96
2018-04-18T15:15:14.675Z,32.30
2018-04-18T15:17:44.585Z,32.35
2018-04-18T15:20:14.411Z,32.43
2018-04-18T15:22:44.326Z,32.22
2018-04-18T15:25:14.232Z,31.97
2018-04-18T15:27:44.041Z,31.94
2018-04-18T15:30:13.754Z,32.03
2018-04-18T15:32:43.567Z,32.03
2018-04-18T15:35:13.393Z,32.02
2018-04-18T15:37:43.200Z,32.06
2018-04-18T15:40:13.011Z,31.81
2018-04-18T15:42:42.855Z,31.42
2018-04-18T15:45:12.641Z,31.23
2018-04-18T15:47:42.445Z,31.08
2018-04-18T15:50:12.271Z,31.16
2018-04-18T15:52:42.179Z,31.09
2018-04-18T15:55:11.997Z,30.77
2018-04-18T15:57:41.800Z,30.48
2018-04-18T16:00:11.616Z,30.29
2018-04-18T16:02:41.434Z,30.07
2018-04-18T16:05:11.341Z,29.84
2018-04-18T16:07:41.127Z,29.86
2018-04-18T16:10:10.969Z,29.43
2018-04-18T16:12:40.781Z,28.96
2018-04-18T16:15:10.594Z,29.08
2018-04-18T16:17:40.414Z,28.77
2018-04-18T16:20:11.855Z,28.83
2018-04-18T16:22:41.677Z,28.58
2018-04-18T16:25:11.486Z,28.04
2018-04-18T16:27:41.404Z,27.91
2018-04-18T16:30:22.994Z,27.55
2018-04-18T16:32:55.543Z,27.33
2018-04-18T16:35:25.393Z,26.56
2018-04-18T16:37:55.193Z,26.26
2018-04-18T16:40:25.021Z,25.71
2018-04-18T16:42:54.927Z,25.49
2018-04-18T16:45:24.841Z,25.09
2018-04-18T16:47:54.667Z,24.64
2018-04-18T16:50:24.573Z,24.44
2018-04-18T16:52:54.389Z,24.20
2018-04-18T16:55:24.292Z,23.95
2018-04-18T16:57:54.103Z,23.68
2018-04-18T17:00:23.919Z,23.27
2018-04-18T17:02:53.731Z,23.09
2018-04-18T17:05:23.542Z,23.00
2018-04-18T17:07:53.326Z,22.73
2018-04-18T17:10:23.178Z,22.57
2018-04-18T17:12:53.088Z,22.36
2018-04-18T17:15:22.904Z,22.07
2018-04-18T17:17:52.812Z,21.76
2018-04-18T17:20:22.746Z,21.74
2018-04-18T17:22:52.663Z,21.42
2018-04-18T17:25:22.410Z,21.29
2018-04-18T17:27:52.987Z,21.37
2018-04-18T17:30:22.912Z,21.21
2018-04-18T17:32:52.713Z,20.93
2018-04-18T17:35:23.356Z,21.02
2018-04-18T17:37:53.161Z,20.99
2018-04-18T17:40:22.972Z,20.92
2018-04-18T17:42:52.797Z,20.91
2018-04-18T17:45:22.615Z,20.89
2018-04-18T17:47:52.417Z,20.86
2018-04-18T17:50:22.224Z,20.77
2018-04-18T17:52:52.044Z,20.82
2018-04-18T17:55:21.849Z,20.89
2018-04-18T17:57:51.773Z,20.79
2018-04-18T18:00:21.588Z,20.64
2018-04-18T18:02:51.399Z,20.40
2018-04-18T18:05:21.209Z,20.43
2018-04-18T18:07:51.021Z,20.50
2018-04-18T18:10:20.937Z,20.57
2018-04-18T18:12:50.746Z,20.69
2018-04-18T18:15:20.666Z,20.78
2018-04-18T18:17:50.483Z,20.69
2018-04-18T18:20:20.238Z,20.69
2018-04-18T18:22:50.104Z,20.75
2018-04-18T18:25:19.892Z,20.71
2018-04-18T18:27:49.838Z,20.77
2018-04-18T18:30:19.670Z,20.64
2018-04-18T18:32:49.565Z,20.62
2018-04-18T18:35:19.374Z,20.42
2018-04-18T18:37:49.468Z,20.41
2018-04-18T18:40:19.495Z,20.32
2018-04-18T18:42:49.428Z,20.31
2018-04-18T18:45:19.250Z,20.44
2018-04-18T18:47:49.152Z,20.39
2018-04-18T18:50:18.963Z,20.36
2018-04-18T18:52:48.887Z,20.28
2018-04-18T18:55:18.695Z,20.21
2018-04-18T18:57:48.506Z,20.06
2018-04-18T19:00:18.319Z,20.08
2018-04-18T19:02:48.104Z,19.90
2018-04-18T19:05:17.944Z,19.83
2018-04-18T19:07:47.770Z,19.84
2018-04-18T19:10:17.685Z,19.70
2018-04-18T19:12:47.500Z,19.59
2018-04-18T19:15:17.301Z,19.44
2018-04-18T19:17:47.121Z,19.07
2018-04-18T19:20:16.932Z,19.13
2018-04-18T19:22:46.689Z,18.92
2018-04-18T19:25:16.995Z,18.85
2018-04-18T19:27:46.875Z,18.84
2018-04-18T19:30:16.797Z,18.74
2018-04-18T19:32:46.716Z,18.60
2018-04-18T19:35:16.488Z,18.53
2018-04-18T19:37:46.330Z,18.48
2018-04-18T19:40:17.182Z,18.46
2018-04-18T19:42:47.088Z,18.46
2018-04-18T19:45:16.902Z,18.56
2018-04-18T19:47:46.711Z,18.59
2018-04-18T19:50:16.593Z,18.60
2018-04-18T19:52:46.442Z,18.53
2018-04-18T19:55:16.359Z,18.59
2018-04-18T19:57:46.269Z,18.53
2018-04-18T20:00:16.327Z,18.63
2018-04-18T20:02:46.116Z,18.69
2018-04-18T20:05:16.032Z,18.68
2018-04-18T20:07:45.848Z,18.70
2018-04-18T20:10:15.640Z,18.76
2018-04-18T20:12:45.458Z,18.60
2018-04-18T20:15:15.273Z,18.66
2018-04-18T20:17:45.183Z,18.41
2018-04-18T20:20:14.995Z,18.23
2018-04-18T20:22:44.806Z,18.20
2018-04-18T20:25:14.622Z,18.12
2018-04-18T20:27:44.347Z,18.19
2018-04-18T20:30:14.253Z,18.22
2018-04-18T20:32:44.061Z,18.11
2018-04-18T20:35:13.983Z,18.14
2018-04-18T20:37:43.903Z,18.09
2018-04-18T20:40:13.812Z,18.12
2018-04-18T20:42:56.324Z,18.19
2018-04-18T20:45:26.140Z,18.29
2018-04-18T20:47:56.065Z,18.24
2018-04-18T20:50:25.866Z,18.31
2018-04-18T20:52:55.628Z,18.32
2018-04-18T20:55:25.402Z,18.33
2018-04-18T20:57:55.304Z,18.28
2018-04-18T21:00:25.217Z,18.41
2018-04-18T21:02:55.024Z,18.34
2018-04-18T21:05:24.941Z,18.34
2018-04-18T21:07:54.751Z,18.39
2018-04-18T21:10:24.567Z,18.35
2018-04-18T21:12:54.382Z,18.27
2018-04-18T21:15:24.197Z,18.12
2018-04-18T21:17:54.011Z,18.05
2018-04-18T21:20:23.828Z,18.01
2018-04-18T21:22:53.731Z,18.02
2018-04-18T21:25:23.546Z,17.84
2018-04-18T21:27:53.368Z,17.76
2018-04-18T21:30:23.111Z,17.79
2018-04-18T21:32:52.986Z,17.76
2018-04-18T21:35:22.865Z,17.66
2018-04-18T21:37:52.724Z,17.56
2018-04-18T21:40:22.490Z,17.69
2018-04-18T21:42:52.443Z,17.74
2018-04-18T21:45:22.355Z,17.84
2018-04-18T21:47:52.146Z,17.78
2018-04-18T21:50:21.979Z,17.76
2018-04-18T21:52:51.803Z,17.82
2018-04-18T21:55:21.611Z,17.85
2018-04-18T21:57:51.422Z,17.89
2018-04-18T22:00:21.352Z,17.85
2018-04-18T22:02:51.259Z,17.92
2018-04-18T22:05:22.769Z,17.91
2018-04-18T22:07:52.365Z,17.84
2018-04-18T22:10:22.872Z,17.93
2018-04-18T22:12:53.205Z,17.90
2018-04-18T22:15:23.901Z,18.01
2018-04-18T22:17:55.196Z,18.06
2018-04-18T22:20:25.571Z,18.08
2018-04-18T22:22:56.224Z,18.17
2018-04-18T22:25:26.449Z,18.16
2018-04-18T22:27:56.419Z,18.16
2018-04-18T22:30:26.873Z,18.05
2018-04-18T22:32:57.216Z,18.00
2018-04-18T22:35:27.442Z,18.17
2018-04-18T22:37:58.325Z,17.94
2018-04-18T22:40:28.681Z,17.46
2018-04-18T22:42:59.287Z,17.22
2018-04-18T22:45:29.769Z,16.75
2018-04-18T22:48:00.102Z,16.72
2018-04-18T22:50:31.399Z,16.56
2018-04-18T22:53:02.644Z,16.76
2018-04-18T22:55:32.469Z,16.83
2018-04-18T22:58:02.722Z,16.77
2018-04-18T23:00:33.865Z,16.86
2018-04-18T23:03:03.877Z,16.75
2018-04-18T23:05:34.320Z,16.86
2018-04-18T23:08:05.215Z,16.96
2018-04-18T23:10:35.382Z,16.91
2018-04-18T23:13:05.732Z,16.83
2018-04-18T23:15:36.198Z,16.59
2018-04-18T23:18:06.778Z,16.33
2018-04-18T23:20:36.537Z,16.19
2018-04-18T23:23:06.175Z,16.10
2018-04-18T23:25:36.794Z,16.24
2018-04-18T23:28:07.378Z,16.09
2018-04-18T23:30:38.537Z,16.21
2018-04-18T23:33:09.035Z,16.15
2018-04-18T23:35:39.592Z,15.99
2018-04-18T23:38:10.152Z,15.82
2018-04-18T23:40:40.787Z,15.97
2018-04-18T23:43:11.301Z,15.97
2018-04-18T23:45:42.374Z,15.96
2018-04-18T23:48:12.760Z,15.93
2018-04-18T23:50:43.156Z,15.93
2018-04-18T23:53:13.361Z,15.74
2018-04-18T23:55:43.792Z,15.68
2018-04-18T23:58:14.080Z,15.64
